sensor_id;sensor_type;location;lat;lon;timestamp;P1;durP1;ratioP1;P2;durP2;ratioP2
31872;SDS011;22407;42.820;23.374;2023-04-19T04:32:17;6.28;;;2.17;;
31872;SDS011;22407;42.820;23.374;2023-04-19T04:34:51;6.20;;;2.28;;
31872;SDS011;22407;42.820;23.374;2023-04-19T04:37:27;9.50;;;3.90;;
31872;SDS011;22407;42.820;23.374;2023-04-19T04:40:04;9.43;;;4.22;;
31872;SDS011;22407;42.820;23.374;2023-04-19T04:42:37;14.50;;;6.93;;
31872;SDS011;22407;42.820;23.374;2023-04-19T04:45:02;7.73;;;3.40;;
31872;SDS011;22407;42.820;23.374;2023-04-19T04:47:40;7.70;;;3.17;;
31872;SDS011;22407;42.820;23.374;2023-04-19T04:55:17;7.93;;;3.22;;
31872;SDS011;22407;42.820;23.374;2023-04-19T04:57:42;10.63;;;4.90;;
31872;SDS011;22407;42.820;23.374;2023-04-19T05:00:08;11.80;;;5.47;;
31872;SDS011;22407;42.820;23.374;2023-04-19T05:02:34;18.08;;;6.60;;
31872;SDS011;22407;42.820;23.374;2023-04-19T05:04:59;11.40;;;3.77;;
31872;SDS011;22407;42.820;23.374;2023-04-19T05:07:24;11.13;;;4.60;;
31872;SDS011;22407;42.820;23.374;2023-04-19T05:09:50;9.13;;;4.60;;
31872;SDS011;22407;42.820;23.374;2023-04-19T05:12:15;10.57;;;3.97;;
31872;SDS011;22407;42.820;23.374;2023-04-19T05:14:40;14.20;;;5.03;;
31872;SDS011;22407;42.820;23.374;2023-04-19T05:17:06;9.03;;;3.37;;
31872;SDS011;22407;42.820;23.374;2023-04-19T05:19:31;7.83;;;3.10;;
31872;SDS011;22407;42.820;23.374;2023-04-19T05:21:56;7.70;;;3.37;;
31872;SDS011;22407;42.820;23.374;2023-04-19T05:24:22;6.90;;;3.00;;
31872;SDS011;22407;42.820;23.374;2023-04-19T05:26:47;6.87;;;3.10;;
31872;SDS011;22407;42.820;23.374;2023-04-19T05:29:12;7.53;;;2.93;;
31872;SDS011;22407;42.820;23.374;2023-04-19T05:31:37;6.63;;;2.80;;
31872;SDS011;22407;42.820;23.374;2023-04-19T05:34:03;6.20;;;2.90;;
31872;SDS011;22407;42.820;23.374;2023-04-19T05:36:28;7.90;;;3.30;;
31872;SDS011;22407;42.820;23.374;2023-04-19T05:38:53;7.10;;;3.17;;
31872;SDS011;22407;42.820;23.374;2023-04-19T05:41:19;6.77;;;3.00;;
31872;SDS011;22407;42.820;23.374;2023-04-19T05:43:44;5.73;;;2.57;;
31872;SDS011;22407;42.820;23.374;2023-04-19T05:46:10;6.47;;;3.00;;
31872;SDS011;22407;42.820;23.374;2023-04-19T05:48:35;8.53;;;3.03;;
31872;SDS011;22407;42.820;23.374;2023-04-19T05:51:01;8.15;;;3.25;;
31872;SDS011;22407;42.820;23.374;2023-04-19T05:53:26;7.30;;;3.08;;
31872;SDS011;22407;42.820;23.374;2023-04-19T05:55:52;8.60;;;3.37;;
31872;SDS011;22407;42.820;23.374;2023-04-19T05:58:17;8.60;;;3.40;;
31872;SDS011;22407;42.820;23.374;2023-04-19T06:00:43;9.63;;;4.05;;
31872;SDS011;22407;42.820;23.374;2023-04-19T06:03:08;6.80;;;2.77;;
31872;SDS011;22407;42.820;23.374;2023-04-19T06:05:33;7.63;;;2.90;;
31872;SDS011;22407;42.820;23.374;2023-04-19T06:07:59;8.83;;;3.30;;
31872;SDS011;22407;42.820;23.374;2023-04-19T06:10:24;8.33;;;2.70;;
31872;SDS011;22407;42.820;23.374;2023-04-19T06:12:49;11.53;;;4.70;;
31872;SDS011;22407;42.820;23.374;2023-04-19T06:15:15;6.50;;;2.47;;
31872;SDS011;22407;42.820;23.374;2023-04-19T06:17:40;7.57;;;2.37;;
31872;SDS011;22407;42.820;23.374;2023-04-19T06:20:06;5.97;;;2.20;;
31872;SDS011;22407;42.820;23.374;2023-04-19T06:22:32;6.78;;;3.20;;
31872;SDS011;22407;42.820;23.374;2023-04-19T06:24:57;5.97;;;2.60;;
31872;SDS011;22407;42.820;23.374;2023-04-19T06:27:22;6.10;;;2.30;;
31872;SDS011;22407;42.820;23.374;2023-04-19T06:29:48;7.57;;;2.87;;
31872;SDS011;22407;42.820;23.374;2023-04-19T06:32:13;6.10;;;2.90;;
31872;SDS011;22407;42.820;23.374;2023-04-19T06:34:38;6.93;;;2.70;;
31872;SDS011;22407;42.820;23.374;2023-04-19T06:37:04;5.72;;;2.45;;
31872;SDS011;22407;42.820;23.374;2023-04-19T06:39:29;7.10;;;2.10;;
31872;SDS011;22407;42.820;23.374;2023-04-19T06:41:54;6.57;;;3.13;;
31872;SDS011;22407;42.820;23.374;2023-04-19T06:44:20;7.63;;;2.90;;
31872;SDS011;22407;42.820;23.374;2023-04-19T06:46:45;6.37;;;3.10;;
31872;SDS011;22407;42.820;23.374;2023-04-19T06:49:10;7.50;;;3.30;;
31872;SDS011;22407;42.820;23.374;2023-04-19T06:51:36;6.20;;;2.80;;
31872;SDS011;22407;42.820;23.374;2023-04-19T06:54:01;7.35;;;3.00;;
31872;SDS011;22407;42.820;23.374;2023-04-19T06:56:45;7.20;;;3.20;;
31872;SDS011;22407;42.820;23.374;2023-04-19T06:59:12;6.72;;;3.25;;
31872;SDS011;22407;42.820;23.374;2023-04-19T07:01:37;7.63;;;3.60;;
31872;SDS011;22407;42.820;23.374;2023-04-19T07:04:06;6.03;;;2.87;;
31872;SDS011;22407;42.820;23.374;2023-04-19T07:06:32;7.90;;;3.72;;
31872;SDS011;22407;42.820;23.374;2023-04-19T07:08:57;6.77;;;3.20;;
31872;SDS011;22407;42.820;23.374;2023-04-19T07:11:22;8.07;;;3.10;;
31872;SDS011;22407;42.820;23.374;2023-04-19T07:13:48;5.93;;;2.50;;
31872;SDS011;22407;42.820;23.374;2023-04-19T07:16:13;6.63;;;2.80;;
31872;SDS011;22407;42.820;23.374;2023-04-19T07:18:38;7.73;;;3.30;;
31872;SDS011;22407;42.820;23.374;2023-04-19T07:21:04;6.57;;;3.00;;
31872;SDS011;22407;42.820;23.374;2023-04-19T07:23:29;6.43;;;2.90;;
31872;SDS011;22407;42.820;23.374;2023-04-19T07:25:55;6.70;;;3.50;;
31872;SDS011;22407;42.820;23.374;2023-04-19T07:28:21;7.90;;;2.97;;
31872;SDS011;22407;42.820;23.374;2023-04-19T07:30:46;6.30;;;2.80;;
31872;SDS011;22407;42.820;23.374;2023-04-19T07:33:11;10.60;;;4.27;;
31872;SDS011;22407;42.820;23.374;2023-04-19T07:35:39;8.63;;;4.27;;
31872;SDS011;22407;42.820;23.374;2023-04-19T07:38:05;8.82;;;2.70;;
31872;SDS011;22407;42.820;23.374;2023-04-19T07:40:30;8.70;;;2.80;;
31872;SDS011;22407;42.820;23.374;2023-04-19T07:42:56;8.13;;;3.53;;
31872;SDS011;22407;42.820;23.374;2023-04-19T07:45:21;8.33;;;3.30;;
31872;SDS011;22407;42.820;23.374;2023-04-19T07:47:46;9.23;;;3.60;;
31872;SDS011;22407;42.820;23.374;2023-04-19T07:50:12;9.37;;;3.53;;
31872;SDS011;22407;42.820;23.374;2023-04-19T07:52:37;6.97;;;3.00;;
31872;SDS011;22407;42.820;23.374;2023-04-19T07:55:02;10.57;;;3.63;;
31872;SDS011;22407;42.820;23.374;2023-04-19T07:57:28;8.37;;;3.40;;
31872;SDS011;22407;42.820;23.374;2023-04-19T07:59:53;7.90;;;3.90;;
31872;SDS011;22407;42.820;23.374;2023-04-19T08:02:22;7.28;;;3.70;;
31872;SDS011;22407;42.820;23.374;2023-04-19T08:04:47;7.50;;;3.00;;
31872;SDS011;22407;42.820;23.374;2023-04-19T08:07:13;13.13;;;4.00;;
31872;SDS011;22407;42.820;23.374;2023-04-19T08:09:38;8.00;;;3.70;;
31872;SDS011;22407;42.820;23.374;2023-04-19T08:12:04;6.13;;;3.00;;
31872;SDS011;22407;42.820;23.374;2023-04-19T08:14:29;8.20;;;2.80;;
31872;SDS011;22407;42.820;23.374;2023-04-19T08:16:55;7.37;;;2.70;;
31872;SDS011;22407;42.820;23.374;2023-04-19T08:19:20;8.53;;;3.47;;
31872;SDS011;22407;42.820;23.374;2023-04-19T08:21:47;8.50;;;4.07;;
31872;SDS011;22407;42.820;23.374;2023-04-19T08:24:13;9.93;;;4.03;;
31872;SDS011;22407;42.820;23.374;2023-04-19T08:26:38;8.50;;;3.67;;
31872;SDS011;22407;42.820;23.374;2023-04-19T08:29:04;8.25;;;3.60;;
31872;SDS011;22407;42.820;23.374;2023-04-19T08:31:29;7.70;;;3.30;;
31872;SDS011;22407;42.820;23.374;2023-04-19T08:33:55;9.90;;;4.00;;
31872;SDS011;22407;42.820;23.374;2023-04-19T08:36:21;8.85;;;3.33;;
31872;SDS011;22407;42.820;23.374;2023-04-19T08:38:46;7.05;;;3.05;;
31872;SDS011;22407;42.820;23.374;2023-04-19T08:41:12;8.73;;;3.80;;
31872;SDS011;22407;42.820;23.374;2023-04-19T08:43:38;7.93;;;3.75;;
31872;SDS011;22407;42.820;23.374;2023-04-19T08:46:05;9.68;;;3.58;;
31872;SDS011;22407;42.820;23.374;2023-04-19T08:48:32;8.02;;;3.42;;
31872;SDS011;22407;42.820;23.374;2023-04-19T08:50:58;9.10;;;3.53;;
31872;SDS011;22407;42.820;23.374;2023-04-19T08:53:24;7.43;;;3.53;;
31872;SDS011;22407;42.820;23.374;2023-04-19T08:55:52;11.50;;;4.40;;
31872;SDS011;22407;42.820;23.374;2023-04-19T08:58:22;9.73;;;4.10;;
31872;SDS011;22407;42.820;23.374;2023-04-19T09:00:47;10.57;;;3.43;;
31872;SDS011;22407;42.820;23.374;2023-04-19T09:03:13;8.30;;;3.57;;
31872;SDS011;22407;42.820;23.374;2023-04-19T09:05:38;12.40;;;4.40;;
31872;SDS011;22407;42.820;23.374;2023-04-19T09:10:57;9.48;;;4.22;;
31872;SDS011;22407;42.820;23.374;2023-04-19T09:13:23;7.40;;;3.35;;
31872;SDS011;22407;42.820;23.374;2023-04-19T09:15:49;7.17;;;2.90;;
31872;SDS011;22407;42.820;23.374;2023-04-19T09:18:15;7.13;;;3.00;;
31872;SDS011;22407;42.820;23.374;2023-04-19T09:20:41;9.70;;;3.03;;
31872;SDS011;22407;42.820;23.374;2023-04-19T09:23:07;7.47;;;3.03;;
31872;SDS011;22407;42.820;23.374;2023-04-19T09:25:33;7.78;;;2.80;;
31872;SDS011;22407;42.820;23.374;2023-04-19T09:28:11;7.70;;;3.15;;
31872;SDS011;22407;42.820;23.374;2023-04-19T09:30:37;8.20;;;4.50;;
31872;SDS011;22407;42.820;23.374;2023-04-19T09:33:02;6.63;;;2.93;;
31872;SDS011;22407;42.820;23.374;2023-04-19T09:35:40;8.33;;;3.47;;
31872;SDS011;22407;42.820;23.374;2023-04-19T09:38:06;7.68;;;3.25;;
31872;SDS011;22407;42.820;23.374;2023-04-19T09:40:31;7.60;;;3.80;;
31872;SDS011;22407;42.820;23.374;2023-04-19T09:42:57;6.17;;;2.97;;
31872;SDS011;22407;42.820;23.374;2023-04-19T09:45:22;7.38;;;2.83;;
31872;SDS011;22407;42.820;23.374;2023-04-19T09:48:04;8.47;;;3.80;;
31872;SDS011;22407;42.820;23.374;2023-04-19T09:50:31;6.85;;;3.85;;
31872;SDS011;22407;42.820;23.374;2023-04-19T09:52:59;6.60;;;3.20;;
31872;SDS011;22407;42.820;23.374;2023-04-19T09:55:28;6.80;;;2.83;;
31872;SDS011;22407;42.820;23.374;2023-04-19T09:57:54;7.77;;;2.93;;
31872;SDS011;22407;42.820;23.374;2023-04-19T10:00:20;7.03;;;3.17;;
31872;SDS011;22407;42.820;23.374;2023-04-19T10:02:46;9.60;;;3.93;;
31872;SDS011;22407;42.820;23.374;2023-04-19T10:05:18;6.60;;;3.13;;
31872;SDS011;22407;42.820;23.374;2023-04-19T10:07:45;6.05;;;2.80;;
31872;SDS011;22407;42.820;23.374;2023-04-19T10:10:10;6.23;;;3.00;;
31872;SDS011;22407;42.820;23.374;2023-04-19T10:12:35;6.03;;;2.77;;
31872;SDS011;22407;42.820;23.374;2023-04-19T10:15:01;7.68;;;3.03;;
31872;SDS011;22407;42.820;23.374;2023-04-19T10:17:26;6.87;;;2.77;;
31872;SDS011;22407;42.820;23.374;2023-04-19T10:19:56;6.57;;;3.07;;
31872;SDS011;22407;42.820;23.374;2023-04-19T10:22:23;6.88;;;2.78;;
31872;SDS011;22407;42.820;23.374;2023-04-19T10:25:11;9.40;;;3.80;;
31872;SDS011;22407;42.820;23.374;2023-04-19T10:27:38;7.75;;;3.42;;
31872;SDS011;22407;42.820;23.374;2023-04-19T10:30:03;6.97;;;3.25;;
31872;SDS011;22407;42.820;23.374;2023-04-19T10:32:38;6.82;;;2.70;;
31872;SDS011;22407;42.820;23.374;2023-04-19T10:35:10;8.70;;;3.67;;
31872;SDS011;22407;42.820;23.374;2023-04-19T10:37:41;7.70;;;3.40;;
31872;SDS011;22407;42.820;23.374;2023-04-19T10:40:52;10.40;;;3.58;;
31872;SDS011;22407;42.820;23.374;2023-04-19T10:43:18;9.63;;;3.50;;
31872;SDS011;22407;42.820;23.374;2023-04-19T10:45:44;7.90;;;3.38;;
31872;SDS011;22407;42.820;23.374;2023-04-19T10:51:33;8.60;;;3.67;;
31872;SDS011;22407;42.820;23.374;2023-04-19T10:56:13;7.47;;;2.97;;
31872;SDS011;22407;42.820;23.374;2023-04-19T11:01:36;12.97;;;3.50;;
31872;SDS011;22407;42.820;23.374;2023-04-19T11:04:11;6.88;;;3.20;;
31872;SDS011;22407;42.820;23.374;2023-04-19T11:09:25;8.05;;;3.75;;
31872;SDS011;22407;42.820;23.374;2023-04-19T11:11:58;7.85;;;3.42;;
31872;SDS011;22407;42.820;23.374;2023-04-19T11:14:23;10.57;;;3.60;;
31872;SDS011;22407;42.820;23.374;2023-04-19T11:16:49;7.50;;;3.63;;
31872;SDS011;22407;42.820;23.374;2023-04-19T11:19:15;8.17;;;3.20;;
31872;SDS011;22407;42.820;23.374;2023-04-19T11:21:40;6.00;;;2.60;;
31872;SDS011;22407;42.820;23.374;2023-04-19T11:24:06;8.33;;;3.40;;
31872;SDS011;22407;42.820;23.374;2023-04-19T11:26:32;9.52;;;4.57;;
31872;SDS011;22407;42.820;23.374;2023-04-19T11:28:57;9.50;;;3.90;;
31872;SDS011;22407;42.820;23.374;2023-04-19T11:31:22;22.13;;;8.17;;
31872;SDS011;22407;42.820;23.374;2023-04-19T11:33:48;20.55;;;7.22;;
31872;SDS011;22407;42.820;23.374;2023-04-19T11:36:13;11.17;;;4.33;;
31872;SDS011;22407;42.820;23.374;2023-04-19T11:38:38;20.00;;;7.20;;
31872;SDS011;22407;42.820;23.374;2023-04-19T11:41:04;9.60;;;4.00;;
31872;SDS011;22407;42.820;23.374;2023-04-19T11:43:32;8.52;;;4.00;;
31872;SDS011;22407;42.820;23.374;2023-04-19T11:46:03;9.52;;;4.35;;
31872;SDS011;22407;42.820;23.374;2023-04-19T11:48:28;6.45;;;2.72;;
31872;SDS011;22407;42.820;23.374;2023-04-19T11:50:57;6.73;;;2.50;;
31872;SDS011;22407;42.820;23.374;2023-04-19T11:53:23;21.35;;;5.82;;
31872;SDS011;22407;42.820;23.374;2023-04-19T11:55:52;9.50;;;3.67;;
31872;SDS011;22407;42.820;23.374;2023-04-19T11:58:28;5.97;;;2.35;;
31872;SDS011;22407;42.820;23.374;2023-04-19T12:00:57;6.43;;;3.03;;
31872;SDS011;22407;42.820;23.374;2023-04-19T12:03:26;6.65;;;2.85;;
31872;SDS011;22407;42.820;23.374;2023-04-19T12:05:52;6.03;;;2.50;;
31872;SDS011;22407;42.820;23.374;2023-04-19T12:08:33;6.10;;;2.70;;
31872;SDS011;22407;42.820;23.374;2023-04-19T12:10:59;8.73;;;2.85;;
31872;SDS011;22407;42.820;23.374;2023-04-19T12:13:24;7.20;;;2.70;;
31872;SDS011;22407;42.820;23.374;2023-04-19T12:15:50;6.20;;;2.40;;
31872;SDS011;22407;42.820;23.374;2023-04-19T12:18:15;8.00;;;3.90;;
31872;SDS011;22407;42.820;23.374;2023-04-19T12:20:44;23.70;;;10.87;;
31872;SDS011;22407;42.820;23.374;2023-04-19T12:23:10;13.05;;;5.28;;
31872;SDS011;22407;42.820;23.374;2023-04-19T12:25:38;14.30;;;4.88;;
31872;SDS011;22407;42.820;23.374;2023-04-19T12:28:03;9.50;;;3.10;;
31872;SDS011;22407;42.820;23.374;2023-04-19T12:30:29;18.93;;;5.23;;
31872;SDS011;22407;42.820;23.374;2023-04-19T12:32:54;32.35;;;8.30;;
31872;SDS011;22407;42.820;23.374;2023-04-19T12:35:20;11.83;;;5.40;;
31872;SDS011;22407;42.820;23.374;2023-04-19T12:37:46;10.63;;;4.47;;
31872;SDS011;22407;42.820;23.374;2023-04-19T12:40:11;11.07;;;5.20;;
31872;SDS011;22407;42.820;23.374;2023-04-19T12:42:37;7.37;;;2.67;;
31872;SDS011;22407;42.820;23.374;2023-04-19T12:45:02;9.23;;;4.20;;
31872;SDS011;22407;42.820;23.374;2023-04-19T12:47:27;8.53;;;4.03;;
31872;SDS011;22407;42.820;23.374;2023-04-19T12:49:53;9.40;;;4.27;;
31872;SDS011;22407;42.820;23.374;2023-04-19T12:52:20;6.97;;;2.57;;
31872;SDS011;22407;42.820;23.374;2023-04-19T12:54:45;6.45;;;2.58;;
31872;SDS011;22407;42.820;23.374;2023-04-19T12:57:10;7.13;;;2.97;;
31872;SDS011;22407;42.820;23.374;2023-04-19T12:59:36;7.57;;;3.37;;
31872;SDS011;22407;42.820;23.374;2023-04-19T13:02:01;10.23;;;5.07;;
31872;SDS011;22407;42.820;23.374;2023-04-19T13:04:26;6.90;;;3.13;;
31872;SDS011;22407;42.820;23.374;2023-04-19T13:06:52;7.87;;;3.83;;
31872;SDS011;22407;42.820;23.374;2023-04-19T13:09:17;8.80;;;3.75;;
31872;SDS011;22407;42.820;23.374;2023-04-19T13:11:43;7.40;;;3.87;;
31872;SDS011;22407;42.820;23.374;2023-04-19T13:14:08;8.20;;;3.70;;
31872;SDS011;22407;42.820;23.374;2023-04-19T13:16:33;7.83;;;3.60;;
31872;SDS011;22407;42.820;23.374;2023-04-19T13:18:58;7.17;;;3.53;;
31872;SDS011;22407;42.820;23.374;2023-04-19T13:21:24;6.40;;;3.17;;
31872;SDS011;22407;42.820;23.374;2023-04-19T13:23:51;7.20;;;3.10;;
31872;SDS011;22407;42.820;23.374;2023-04-19T13:26:17;7.73;;;3.67;;
31872;SDS011;22407;42.820;23.374;2023-04-19T13:28:42;6.50;;;2.90;;
31872;SDS011;22407;42.820;23.374;2023-04-19T13:31:07;7.53;;;3.70;;
31872;SDS011;22407;42.820;23.374;2023-04-19T13:33:33;6.50;;;2.87;;
31872;SDS011;22407;42.820;23.374;2023-04-19T13:35:58;6.63;;;2.50;;
31872;SDS011;22407;42.820;23.374;2023-04-19T13:38:23;6.40;;;2.50;;
31872;SDS011;22407;42.820;23.374;2023-04-19T13:40:49;7.60;;;3.13;;
31872;SDS011;22407;42.820;23.374;2023-04-19T13:43:14;16.00;;;6.60;;
31872;SDS011;22407;42.820;23.374;2023-04-19T13:45:40;20.47;;;7.70;;
31872;SDS011;22407;42.820;23.374;2023-04-19T13:48:05;19.23;;;8.03;;
31872;SDS011;22407;42.820;23.374;2023-04-19T13:50:30;7.67;;;3.10;;
31872;SDS011;22407;42.820;23.374;2023-04-19T13:52:55;6.07;;;2.20;;
31872;SDS011;22407;42.820;23.374;2023-04-19T13:55:21;22.23;;;8.40;;
31872;SDS011;22407;42.820;23.374;2023-04-19T13:57:46;8.30;;;3.10;;
31872;SDS011;22407;42.820;23.374;2023-04-19T14:00:11;17.33;;;6.50;;
31872;SDS011;22407;42.820;23.374;2023-04-19T14:02:37;9.45;;;3.42;;
31872;SDS011;22407;42.820;23.374;2023-04-19T14:05:02;6.40;;;2.43;;
31872;SDS011;22407;42.820;23.374;2023-04-19T14:07:28;6.45;;;2.60;;
31872;SDS011;22407;42.820;23.374;2023-04-19T14:09:54;7.73;;;3.47;;
31872;SDS011;22407;42.820;23.374;2023-04-19T14:12:19;5.23;;;2.20;;
31872;SDS011;22407;42.820;23.374;2023-04-19T14:14:44;6.60;;;2.50;;
31872;SDS011;22407;42.820;23.374;2023-04-19T14:17:10;5.63;;;2.10;;
31872;SDS011;22407;42.820;23.374;2023-04-19T14:19:35;9.13;;;4.03;;
31872;SDS011;22407;42.820;23.374;2023-04-19T14:22:01;6.30;;;2.50;;
31872;SDS011;22407;42.820;23.374;2023-04-19T14:24:27;5.97;;;2.10;;
31872;SDS011;22407;42.820;23.374;2023-04-19T14:26:52;6.37;;;2.20;;
31872;SDS011;22407;42.820;23.374;2023-04-19T14:29:17;7.67;;;3.50;;
31872;SDS011;22407;42.820;23.374;2023-04-19T14:31:43;7.63;;;3.73;;
31872;SDS011;22407;42.820;23.374;2023-04-19T14:34:08;8.70;;;2.87;;
31872;SDS011;22407;42.820;23.374;2023-04-19T14:36:33;26.70;;;6.27;;
31872;SDS011;22407;42.820;23.374;2023-04-19T14:38:58;6.60;;;2.80;;
31872;SDS011;22407;42.820;23.374;2023-04-19T14:41:24;6.20;;;2.50;;
31872;SDS011;22407;42.820;23.374;2023-04-19T14:43:49;5.10;;;1.80;;
31872;SDS011;22407;42.820;23.374;2023-04-19T14:46:14;5.60;;;2.20;;
31872;SDS011;22407;42.820;23.374;2023-04-19T14:48:40;5.93;;;2.13;;
31872;SDS011;22407;42.820;23.374;2023-04-19T14:51:05;6.03;;;2.70;;
31872;SDS011;22407;42.820;23.374;2023-04-19T14:53:30;5.33;;;2.47;;
31872;SDS011;22407;42.820;23.374;2023-04-19T14:55:55;7.67;;;2.63;;
31872;SDS011;22407;42.820;23.374;2023-04-19T14:58:21;6.38;;;2.20;;
31872;SDS011;22407;42.820;23.374;2023-04-19T15:00:46;8.10;;;2.77;;
31872;SDS011;22407;42.820;23.374;2023-04-19T15:03:11;5.57;;;2.47;;
31872;SDS011;22407;42.820;23.374;2023-04-19T15:05:37;5.83;;;2.30;;
31872;SDS011;22407;42.820;23.374;2023-04-19T15:08:02;14.33;;;4.50;;
31872;SDS011;22407;42.820;23.374;2023-04-19T15:10:27;8.67;;;2.67;;
31872;SDS011;22407;42.820;23.374;2023-04-19T15:12:53;7.30;;;3.00;;
31872;SDS011;22407;42.820;23.374;2023-04-19T15:15:18;15.57;;;4.10;;
31872;SDS011;22407;42.820;23.374;2023-04-19T15:17:44;13.00;;;4.07;;
31872;SDS011;22407;42.820;23.374;2023-04-19T15:20:09;11.33;;;3.80;;
31872;SDS011;22407;42.820;23.374;2023-04-19T15:22:34;9.37;;;3.87;;
31872;SDS011;22407;42.820;23.374;2023-04-19T15:25:00;19.50;;;8.23;;
31872;SDS011;22407;42.820;23.374;2023-04-19T15:27:25;6.82;;;3.20;;
31872;SDS011;22407;42.820;23.374;2023-04-19T15:29:52;7.87;;;3.30;;
31872;SDS011;22407;42.820;23.374;2023-04-19T15:32:17;7.13;;;3.10;;
31872;SDS011;22407;42.820;23.374;2023-04-19T15:34:42;8.13;;;3.47;;
31872;SDS011;22407;42.820;23.374;2023-04-19T15:37:08;7.03;;;3.17;;
31872;SDS011;22407;42.820;23.374;2023-04-19T15:39:33;7.00;;;3.27;;
31872;SDS011;22407;42.820;23.374;2023-04-19T15:41:58;8.93;;;4.27;;
31872;SDS011;22407;42.820;23.374;2023-04-19T15:44:24;10.37;;;4.80;;
31872;SDS011;22407;42.820;23.374;2023-04-19T15:46:49;13.47;;;6.27;;
31872;SDS011;22407;42.820;23.374;2023-04-19T15:49:14;15.87;;;7.10;;
31872;SDS011;22407;42.820;23.374;2023-04-19T15:51:40;29.80;;;11.20;;
31872;SDS011;22407;42.820;23.374;2023-04-19T15:54:05;33.03;;;12.37;;
31872;SDS011;22407;42.820;23.374;2023-04-19T15:56:30;40.97;;;17.05;;
31872;SDS011;22407;42.820;23.374;2023-04-19T15:58:56;38.63;;;19.40;;
31872;SDS011;22407;42.820;23.374;2023-04-19T16:01:21;27.37;;;14.93;;
31872;SDS011;22407;42.820;23.374;2023-04-19T16:03:47;29.33;;;13.43;;
31872;SDS011;22407;42.820;23.374;2023-04-19T16:06:12;33.65;;;16.15;;
31872;SDS011;22407;42.820;23.374;2023-04-19T16:08:38;42.00;;;18.53;;
31872;SDS011;22407;42.820;23.374;2023-04-19T16:11:04;101.80;;;49.27;;
31872;SDS011;22407;42.820;23.374;2023-04-19T16:13:29;39.53;;;18.52;;
31872;SDS011;22407;42.820;23.374;2023-04-19T16:15:58;39.90;;;18.67;;
31872;SDS011;22407;42.820;23.374;2023-04-19T16:18:23;50.10;;;21.05;;
31872;SDS011;22407;42.820;23.374;2023-04-19T16:20:48;57.97;;;20.13;;
31872;SDS011;22407;42.820;23.374;2023-04-19T16:23:14;70.17;;;23.43;;
31872;SDS011;22407;42.820;23.374;2023-04-19T16:25:40;41.95;;;18.15;;
31872;SDS011;22407;42.820;23.374;2023-04-19T16:28:05;24.93;;;13.13;;
31872;SDS011;22407;42.820;23.374;2023-04-19T16:30:30;23.03;;;10.73;;
31872;SDS011;22407;42.820;23.374;2023-04-19T16:32:56;32.73;;;13.10;;
31872;SDS011;22407;42.820;23.374;2023-04-19T16:35:22;34.90;;;13.57;;
31872;SDS011;22407;42.820;23.374;2023-04-19T16:37:47;13.93;;;6.67;;
31872;SDS011;22407;42.820;23.374;2023-04-19T16:40:12;17.92;;;8.45;;
31872;SDS011;22407;42.820;23.374;2023-04-19T16:42:38;14.93;;;6.90;;
31872;SDS011;22407;42.820;23.374;2023-04-19T16:45:04;16.33;;;6.60;;
31872;SDS011;22407;42.820;23.374;2023-04-19T16:47:30;13.77;;;6.80;;
31872;SDS011;22407;42.820;23.374;2023-04-19T16:49:56;14.68;;;7.22;;
31872;SDS011;22407;42.820;23.374;2023-04-19T16:52:23;18.10;;;8.03;;
31872;SDS011;22407;42.820;23.374;2023-04-19T16:54:48;17.60;;;10.38;;
31872;SDS011;22407;42.820;23.374;2023-04-19T16:57:13;15.73;;;7.23;;
31872;SDS011;22407;42.820;23.374;2023-04-19T16:59:39;15.23;;;8.02;;
31872;SDS011;22407;42.820;23.374;2023-04-19T17:02:04;14.47;;;6.43;;
31872;SDS011;22407;42.820;23.374;2023-04-19T17:04:32;11.90;;;5.97;;
31872;SDS011;22407;42.820;23.374;2023-04-19T17:06:57;20.60;;;10.20;;
31872;SDS011;22407;42.820;23.374;2023-04-19T17:09:22;17.13;;;8.23;;
31872;SDS011;22407;42.820;23.374;2023-04-19T17:11:47;13.43;;;7.13;;
31872;SDS011;22407;42.820;23.374;2023-04-19T17:14:13;15.18;;;6.40;;
31872;SDS011;22407;42.820;23.374;2023-04-19T17:16:38;14.07;;;7.03;;
31872;SDS011;22407;42.820;23.374;2023-04-19T17:19:03;16.70;;;7.30;;
31872;SDS011;22407;42.820;23.374;2023-04-19T17:21:29;22.93;;;10.00;;
31872;SDS011;22407;42.820;23.374;2023-04-19T17:23:55;106.20;;;48.80;;
31872;SDS011;22407;42.820;23.374;2023-04-19T17:26:20;106.57;;;43.43;;
31872;SDS011;22407;42.820;23.374;2023-04-19T17:28:46;84.43;;;38.47;;
31872;SDS011;22407;42.820;23.374;2023-04-19T17:31:11;64.63;;;31.63;;
31872;SDS011;22407;42.820;23.374;2023-04-19T17:33:36;112.20;;;33.33;;
31872;SDS011;22407;42.820;23.374;2023-04-19T17:36:03;132.95;;;40.72;;
31872;SDS011;22407;42.820;23.374;2023-04-19T17:38:28;87.50;;;33.88;;
31872;SDS011;22407;42.820;23.374;2023-04-19T17:40:53;42.33;;;19.53;;
31872;SDS011;22407;42.820;23.374;2023-04-19T17:43:19;30.23;;;13.23;;
31872;SDS011;22407;42.820;23.374;2023-04-19T17:45:45;46.72;;;21.30;;
31872;SDS011;22407;42.820;23.374;2023-04-19T17:48:10;33.63;;;15.03;;
31872;SDS011;22407;42.820;23.374;2023-04-19T17:50:35;24.93;;;10.90;;
31872;SDS011;22407;42.820;23.374;2023-04-19T17:53:00;21.10;;;9.80;;
31872;SDS011;22407;42.820;23.374;2023-04-19T17:55:26;26.30;;;13.07;;
31872;SDS011;22407;42.820;23.374;2023-04-19T17:57:51;20.37;;;10.50;;
31872;SDS011;22407;42.820;23.374;2023-04-19T18:00:17;18.33;;;8.73;;
31872;SDS011;22407;42.820;23.374;2023-04-19T18:02:42;21.88;;;9.05;;
31872;SDS011;22407;42.820;23.374;2023-04-19T18:05:07;37.50;;;13.53;;
31872;SDS011;22407;42.820;23.374;2023-04-19T18:07:35;22.53;;;10.87;;
31872;SDS011;22407;42.820;23.374;2023-04-19T18:10:01;18.58;;;8.77;;
31872;SDS011;22407;42.820;23.374;2023-04-19T18:12:30;18.73;;;8.20;;
31872;SDS011;22407;42.820;23.374;2023-04-19T18:14:55;17.67;;;7.78;;
31872;SDS011;22407;42.820;23.374;2023-04-19T18:17:21;15.90;;;6.87;;
31872;SDS011;22407;42.820;23.374;2023-04-19T18:19:46;13.60;;;6.23;;
31872;SDS011;22407;42.820;23.374;2023-04-19T18:22:11;13.97;;;6.53;;
31872;SDS011;22407;42.820;23.374;2023-04-19T18:24:37;13.23;;;6.50;;
31872;SDS011;22407;42.820;23.374;2023-04-19T18:27:13;13.43;;;5.93;;
31872;SDS011;22407;42.820;23.374;2023-04-19T18:29:38;15.13;;;6.80;;
31872;SDS011;22407;42.820;23.374;2023-04-19T18:32:04;13.75;;;5.88;;
31872;SDS011;22407;42.820;23.374;2023-04-19T18:34:29;13.77;;;6.80;;
31872;SDS011;22407;42.820;23.374;2023-04-19T18:36:58;13.13;;;6.40;;
31872;SDS011;22407;42.820;23.374;2023-04-19T18:39:24;15.85;;;7.60;;
31872;SDS011;22407;42.820;23.374;2023-04-19T18:41:50;13.03;;;6.60;;
31872;SDS011;22407;42.820;23.374;2023-04-19T18:44:15;14.90;;;7.37;;
31872;SDS011;22407;42.820;23.374;2023-04-19T18:46:43;13.50;;;7.40;;
31872;SDS011;22407;42.820;23.374;2023-04-19T18:49:09;20.65;;;9.02;;
31872;SDS011;22407;42.820;23.374;2023-04-19T18:51:34;41.77;;;19.80;;
31872;SDS011;22407;42.820;23.374;2023-04-19T18:54:00;30.75;;;12.10;;
31872;SDS011;22407;42.820;23.374;2023-04-19T18:56:25;18.67;;;8.60;;
31872;SDS011;22407;42.820;23.374;2023-04-19T18:58:51;24.50;;;10.77;;
31872;SDS011;22407;42.820;23.374;2023-04-19T19:01:18;22.93;;;9.67;;
31872;SDS011;22407;42.820;23.374;2023-04-19T19:03:44;26.48;;;13.20;;
31872;SDS011;22407;42.820;23.374;2023-04-19T19:06:10;22.90;;;10.80;;
31872;SDS011;22407;42.820;23.374;2023-04-19T19:08:36;44.97;;;21.10;;
31872;SDS011;22407;42.820;23.374;2023-04-19T19:11:02;52.92;;;24.50;;
31872;SDS011;22407;42.820;23.374;2023-04-19T19:13:27;32.60;;;14.33;;